createdAt,value
2018-05-06T00:03:12.167Z,82
2018-05-06T00:08:12.261Z,82
2018-05-06T00:13:12.652Z,83
2018-05-06T00:18:12.099Z,83
2018-05-06T00:23:12.399Z,83
2018-05-06T00:28:12.733Z,83
2018-05-06T00:33:12.073Z,84
2018-05-06T00:38:12.447Z,84
2018-05-06T00:43:11.765Z,84
2018-05-06T00:48:12.142Z,84
2018-05-06T00:53:12.599Z,85
2018-05-06T00:58:11.890Z,85
2018-05-06T01:03:12.298Z,85
2018-05-06T01:08:12.422Z,85
2018-05-06T01:13:12.610Z,86
2018-05-06T01:18:12.048Z,86
2018-05-06T01:23:12.417Z,87
2018-05-06T01:28:12.453Z,87
2018-05-06T01:33:11.959Z,87
2018-05-06T01:38:12.367Z,87
2018-05-06T01:43:11.867Z,88
2018-05-06T01:48:12.317Z,88
2018-05-06T01:53:12.659Z,88
2018-05-06T01:58:11.978Z,88
2018-05-06T02:03:12.395Z,89
2018-05-06T02:08:11.855Z,89
2018-05-06T02:13:12.225Z,90
2018-05-06T02:18:12.677Z,90
2018-05-06T02:23:11.900Z,90
2018-05-06T02:28:12.347Z,90
2018-05-06T02:33:12.811Z,90
2018-05-06T02:38:12.221Z,90
2018-05-06T02:43:12.578Z,90
2018-05-06T02:48:12.045Z,90
2018-05-06T02:53:12.469Z,90
2018-05-06T02:58:12.779Z,90
2018-05-06T03:03:12.415Z,91
2018-05-06T03:08:12.769Z,91
2018-05-06T03:13:12.112Z,91
2018-05-06T03:18:12.449Z,91
2018-05-06T03:23:12.796Z,91
2018-05-06T03:28:12.234Z,91
2018-05-06T03:33:12.724Z,91
2018-05-06T03:38:12.115Z,91
2018-05-06T03:43:12.513Z,91
2018-05-06T03:48:11.977Z,91
2018-05-06T03:53:12.384Z,91
2018-05-06T03:58:12.808Z,91
2018-05-06T04:03:12.322Z,90
2018-05-06T04:08:12.316Z,90
2018-05-06T04:13:12.835Z,90
2018-05-06T04:18:12.374Z,90
2018-05-06T04:23:12.762Z,90
2018-05-06T04:28:12.163Z,90
2018-05-06T04:33:12.723Z,90
2018-05-06T04:38:12.286Z,90
2018-05-06T04:43:12.807Z,90
2018-05-06T04:48:12.253Z,90
2018-05-06T04:53:12.130Z,91
2018-05-06T04:58:12.511Z,91
2018-05-06T05:03:13.037Z,91
2018-05-06T05:08:12.433Z,91
2018-05-06T05:13:12.834Z,91
2018-05-06T05:18:12.200Z,91
2018-05-06T05:23:12.477Z,90
2018-05-06T05:28:12.865Z,90
2018-05-06T05:33:12.233Z,89
2018-05-06T05:38:12.527Z,89
2018-05-06T05:43:12.746Z,87
2018-05-06T05:48:12.037Z,87
2018-05-06T05:53:12.275Z,85
2018-05-06T05:58:12.485Z,85
2018-05-06T06:03:12.192Z,83
2018-05-06T06:08:12.886Z,83
2018-05-06T06:13:12.095Z,81
2018-05-06T06:18:13.110Z,81
2018-05-06T06:23:12.394Z,80
2018-05-06T06:28:12.709Z,80
2018-05-06T06:33:12.954Z,77
2018-05-06T06:38:12.287Z,77
2018-05-06T06:43:12.578Z,74
2018-05-06T06:48:12.954Z,74
2018-05-06T06:53:12.316Z,69
2018-05-06T06:58:12.480Z,69
2018-05-06T07:03:12.958Z,64
2018-05-06T07:08:12.307Z,64
2018-05-06T07:13:12.668Z,62
2018-05-06T07:18:12.887Z,62
2018-05-06T07:23:12.395Z,58
2018-05-06T07:28:12.756Z,58
2018-05-06T07:33:13.281Z,58
2018-05-06T07:38:12.533Z,58
2018-05-06T07:43:12.870Z,56
2018-05-06T07:48:13.103Z,56
2018-05-06T07:53:12.373Z,56
2018-05-06T07:58:12.691Z,56
2018-05-06T08:03:13.059Z,56
2018-05-06T08:08:12.313Z,56
2018-05-06T08:13:12.628Z,53
2018-05-06T08:18:12.844Z,53
2018-05-06T08:23:13.170Z,52
2018-05-06T08:28:12.403Z,52
2018-05-06T08:33:12.761Z,50
2018-05-06T08:38:13.025Z,50
2018-05-06T08:43:12.244Z,51
2018-05-06T08:48:12.549Z,51
2018-05-06T08:53:12.880Z,48
2018-05-06T08:58:13.167Z,48
2018-05-06T09:03:12.606Z,47
2018-05-06T09:08:12.620Z,47
2018-05-06T09:13:13.000Z,50
2018-05-06T09:18:13.248Z,50
2018-05-06T09:23:12.509Z,45
2018-05-06T09:28:12.844Z,45
2018-05-06T09:33:13.205Z,45
2018-05-06T09:38:12.555Z,45
2018-05-06T09:43:12.805Z,46
2018-05-06T09:48:13.149Z,46
2018-05-06T09:53:12.359Z,44
2018-05-06T09:58:12.579Z,44
2018-05-06T10:03:12.893Z,45
2018-05-06T10:08:12.789Z,45
2018-05-06T10:13:13.095Z,46
2018-05-06T10:18:12.537Z,46
2018-05-06T10:23:12.765Z,46
2018-05-06T10:28:13.091Z,46
2018-05-06T10:33:12.499Z,47
2018-05-06T10:38:12.794Z,47
2018-05-06T10:43:13.046Z,46
2018-05-06T10:48:13.457Z,46
2018-05-06T10:53:12.689Z,45
2018-05-06T10:58:12.973Z,45
2018-05-06T11:03:13.533Z,47
2018-05-06T11:08:12.783Z,47
2018-05-06T11:13:13.077Z,44
2018-05-06T11:18:13.396Z,44
2018-05-06T11:23:12.689Z,44
2018-05-06T11:28:12.898Z,44
2018-05-06T11:33:13.337Z,42
2018-05-06T11:38:12.627Z,42
2018-05-06T11:43:12.879Z,42
2018-05-06T11:48:13.277Z,42
2018-05-06T11:53:12.568Z,42
2018-05-06T11:58:12.833Z,42
2018-05-06T12:03:13.204Z,42
2018-05-06T12:08:12.524Z,42
2018-05-06T12:13:12.715Z,43
2018-05-06T12:18:13.037Z,43
2018-05-06T12:23:13.303Z,43
2018-05-06T12:28:12.549Z,43
2018-05-06T12:33:12.953Z,42
2018-05-06T12:38:13.346Z,42
2018-05-06T12:43:12.914Z,43
2018-05-06T12:48:13.232Z,43
2018-05-06T12:53:13.480Z,43
2018-05-06T12:58:12.732Z,43
2018-05-06T13:03:13.214Z,42
2018-05-06T13:08:12.643Z,42
2018-05-06T13:13:12.661Z,41
2018-05-06T13:18:12.992Z,41
2018-05-06T13:23:13.279Z,43
2018-05-06T13:28:12.598Z,43
2018-05-06T13:33:12.898Z,41
2018-05-06T13:38:13.294Z,41
2018-05-06T13:43:12.651Z,43
2018-05-06T13:48:12.845Z,43
2018-05-06T13:53:13.175Z,41
2018-05-06T13:58:12.740Z,41
2018-05-06T14:03:13.096Z,44
2018-05-06T14:08:13.443Z,44
2018-05-06T14:13:12.888Z,41
2018-05-06T14:18:13.176Z,41
2018-05-06T14:23:13.476Z,40
2018-05-06T14:28:12.696Z,40
2018-05-06T14:33:13.024Z,40
2018-05-06T14:38:13.327Z,40
2018-05-06T14:43:12.621Z,42
2018-05-06T14:48:12.937Z,42
2018-05-06T14:53:13.269Z,42
2018-05-06T14:58:13.507Z,42
2018-05-06T15:03:12.930Z,41
2018-05-06T15:08:13.251Z,41
2018-05-06T15:13:12.876Z,41
2018-05-06T15:18:13.349Z,41
2018-05-06T15:23:13.661Z,41
2018-05-06T15:28:12.901Z,41
2018-05-06T15:33:13.210Z,41
2018-05-06T15:38:13.556Z,41
2018-05-06T15:43:13.170Z,41
2018-05-06T15:48:13.361Z,41
2018-05-06T15:53:13.605Z,41
2018-05-06T15:58:12.794Z,41
2018-05-06T16:03:13.211Z,42
2018-05-06T16:08:13.644Z,42
2018-05-06T16:13:13.300Z,42
2018-05-06T16:18:13.612Z,42
2018-05-06T16:23:12.938Z,42
2018-05-06T16:28:13.296Z,42
2018-05-06T16:33:13.623Z,42
2018-05-06T16:38:12.838Z,42
2018-05-06T16:43:13.176Z,42
2018-05-06T16:48:13.564Z,42
2018-05-06T16:53:12.751Z,43
2018-05-06T16:58:13.043Z,43
2018-05-06T17:03:13.379Z,44
2018-05-06T17:08:13.690Z,44
2018-05-06T17:13:13.755Z,45
2018-05-06T17:18:13.107Z,45
2018-05-06T17:23:13.426Z,46
2018-05-06T17:28:13.765Z,46
2018-05-06T17:33:13.218Z,47
2018-05-06T17:38:13.489Z,47
2018-05-06T17:43:13.888Z,51
2018-05-06T17:48:13.267Z,51
2018-05-06T17:53:13.577Z,52
2018-05-06T17:58:12.819Z,52
2018-05-06T18:03:13.192Z,54
2018-05-06T18:08:13.506Z,54
2018-05-06T18:13:12.942Z,55
2018-05-06T18:18:13.277Z,55
2018-05-06T18:23:13.716Z,56
2018-05-06T18:28:13.102Z,56
2018-05-06T18:33:13.552Z,57
2018-05-06T18:38:13.866Z,57
2018-05-06T18:43:13.144Z,58
2018-05-06T18:48:13.412Z,58
2018-05-06T18:53:13.744Z,59
2018-05-06T18:58:13.158Z,59
2018-05-06T19:03:13.570Z,60
2018-05-06T19:08:12.919Z,60
2018-05-06T19:13:13.808Z,61
2018-05-06T19:18:13.141Z,61
2018-05-06T19:23:13.388Z,62
2018-05-06T19:28:13.762Z,62
2018-05-06T19:33:13.084Z,63
2018-05-06T19:38:13.359Z,63
2018-05-06T19:43:13.687Z,64
2018-05-06T19:48:13.061Z,64
2018-05-06T19:53:13.389Z,66
2018-05-06T19:58:13.657Z,66
2018-05-06T20:03:13.123Z,67
2018-05-06T20:08:13.361Z,67
2018-05-06T20:13:13.578Z,68
2018-05-06T20:18:13.896Z,68
2018-05-06T20:23:13.242Z,68
2018-05-06T20:28:13.475Z,68
2018-05-06T20:33:13.927Z,69
2018-05-06T20:38:13.382Z,69
2018-05-06T20:43:13.619Z,70
2018-05-06T20:48:14.013Z,70
2018-05-06T20:53:13.475Z,71
2018-05-06T20:58:13.803Z,71
2018-05-06T21:03:13.217Z,72
2018-05-06T21:08:13.542Z,72
2018-05-06T21:13:13.817Z,74
2018-05-06T21:18:13.183Z,74
2018-05-06T21:23:13.543Z,75
2018-05-06T21:28:13.826Z,75
2018-05-06T21:33:13.305Z,76
2018-05-06T21:38:13.701Z,76
2018-05-06T21:43:14.098Z,77
2018-05-06T21:48:13.393Z,77
2018-05-06T21:53:13.627Z,78
2018-05-06T21:58:13.965Z,78
2018-05-06T22:03:13.284Z,79
2018-05-06T22:08:13.609Z,79
2018-05-06T22:13:14.023Z,80
2018-05-06T22:18:13.375Z,80
2018-05-06T22:23:13.533Z,81
2018-05-06T22:28:13.849Z,81
2018-05-06T22:33:14.267Z,81
2018-05-06T22:38:13.613Z,81
2018-05-06T22:43:13.855Z,82
2018-05-06T22:48:14.136Z,82
2018-05-06T22:53:13.396Z,83
2018-05-06T22:58:13.610Z,83
2018-05-06T23:03:13.490Z,83
2018-05-06T23:08:13.804Z,83
2018-05-06T23:13:14.460Z,84
2018-05-06T23:18:13.765Z,84
2018-05-06T23:23:13.893Z,85
2018-05-06T23:28:14.269Z,85
2018-05-06T23:33:13.702Z,85
2018-05-06T23:38:14.126Z,85
2018-05-06T23:43:13.339Z,85
2018-05-06T23:48:13.730Z,85
2018-05-06T23:53:13.997Z,86
2018-05-06T23:58:14.341Z,86
